Decoded Metar for KPIB (PINE BELT RGNL in MS, USA) (IATA:PIB) | Meteo·Mobile Aviation Weather
aviador You're here:

KPIB Decoded Metar

PINE BELT RGNL in MS, USA
Report Time2019-02-22 22:56:00
UTC Time2019-02-23 00:41:34
Flight Rules Old
Wind130° at 09 kt
W.Decomp.*RWY 18: 5.9 kt HW 6.8 kt LCW
W.Rank130° ranks 17
Current wind is above 130° avg. (5.8)
Visibility9999 m
Phenomena:N/A
Clouds:Scattered 023 Hf
Scattered 029 Hf
Broken 034 Hf
Expected CloudBase > 1,200 ft AGL from Temp-Dew spread
Ceiling3,400 ft
Temp24°C (ISA +10)
Dew Point21°C (83% RH)
QNH1016 hPa
Density Alt1,640 ft
Elevation299 ft
Report Wrong Elevation
Raw Report
KPIB 222256Z AUTO 13009KT 10SM SCT023 SCT029 BKN034 24/21 A3001
RMK AO2 SLP162 T02440206=

Extra information for KPIB:More info

Metar Taf Metar & Taf Last 4 Metars F.Rules Stats Wind Profile Meteogram Temp Stats Airport Information Weather charts Add Link Nearby VenuesMetar ALERT Operation Metar Decoded Social comments

AIRNAV info for KPIB